TOL weather

Toledo Express Airport
Toledo, Ohio, United States

Public forecast

Using degrees Fahrenheit for public forecast. Weather courtesy of forecast.io.

METAR (pilot weather report)

Retrieved 2019/05/19 10:52 UTC (56 minutes ago):

KTOL 191052Z 16004KT 10SM CLR 20/17 A2978 RMK AO2 SLP081 T02000167

TAF (pilot weather forecast)

Retrieved 2019/05/19 06:22 UTC (5 hours ago):

TAF KTOL 190520Z 1906/2006 19006KT P6SM BKN250 FM191300 20013G20KT P6SM SCT050 BKN250 FM191800 21020G28KT P6SM BKN050 PROB30 1918/1924 P6SM TSRA OVC035CB FM200000 22012KT P6SM BKN100